Time;durP1;ratioP1;P1;durP2;ratioP2;P2;SDS_P1;SDS_P2;PMS_P1;PMS_P2;Temp;Humidity;BMP_temperature;BMP_pressure;BME280_temperature;BME280_humidity;BME280_pressure;Samples;Min_cycle;Max_cycle;Signal;HPM_P1;HPM_P2
2020/12/24 00:01:41;;;;;;;;;;;23.40;46.40;;;;;;1507852;77;1132;-56
2020/12/24 00:03:43;;;;;;;;;;;23.50;46.60;;;;;;1511436;77;664;-56
2020/12/24 00:05:44;;;;;;;;;;;23.40;46.50;;;;;;1498640;77;647;-57
2020/12/24 00:07:46;;;;;;;;;;;23.50;46.60;;;;;;1503853;77;726;-54
2020/12/24 00:09:48;;;;;;;;;;;23.50;46.60;;;;;;1503987;77;675;-56
2020/12/24 00:11:50;;;;;;;;;;;23.50;46.60;;;;;;1497553;77;1047;-56
2020/12/24 00:13:52;;;;;;;;;;;23.50;46.60;;;;;;1502236;77;1969;-57
2020/12/24 00:15:54;;;;;;;;;;;23.50;46.70;;;;;;1499474;77;742;-57
2020/12/24 00:17:56;;;;;;;;;;;23.40;46.50;;;;;;1501631;77;694;-57
2020/12/24 00:19:57;;;;;;;;;;;23.40;46.50;;;;;;1506617;77;730;-56
2020/12/24 00:21:59;;;;;;;;;;;23.50;46.70;;;;;;1501131;77;1175;-56
2020/12/24 00:24:01;;;;;;;;;;;23.50;46.80;;;;;;1500919;77;666;-55
2020/12/24 00:26:04;;;;;;;;;;;23.50;46.70;;;;;;1499762;77;770;-55
2020/12/24 00:28:07;;;;;;;;;;;23.40;46.60;;;;;;1509243;77;707;-55
2020/12/24 00:30:09;;;;;;;;;;;23.40;46.60;;;;;;1508956;77;1145;-56
2020/12/24 00:32:11;;;;;;;;;;;23.40;46.70;;;;;;1480167;78;1949;-54
2020/12/24 00:34:13;;;;;;;;;;;23.40;46.60;;;;;;1505769;77;728;-57
2020/12/24 00:36:14;;;;;;;;;;;23.40;46.70;;;;;;1509376;77;737;-56
2020/12/24 00:38:16;;;;;;;;;;;23.40;46.70;;;;;;1511586;77;728;-56
2020/12/24 00:40:18;;;;;;;;;;;23.40;46.60;;;;;;1510607;77;1089;-57
2020/12/24 00:42:20;;;;;;;;;;;23.40;46.70;;;;;;1511640;77;682;-56
2020/12/24 00:44:22;;;;;;;;;;;23.40;46.70;;;;;;1499456;77;745;-56
2020/12/24 00:46:24;;;;;;;;;;;23.40;46.70;;;;;;1510635;77;750;-57
2020/12/24 00:48:26;;;;;;;;;;;23.40;46.70;;;;;;1512905;77;616;-56
2020/12/24 00:50:28;;;;;;;;;;;23.40;46.80;;;;;;1505716;77;1123;-56
2020/12/24 00:52:30;;;;;;;;;;;23.50;46.90;;;;;;1504104;77;1938;-56
2020/12/24 00:54:32;;;;;;;;;;;23.40;46.80;;;;;;1506100;77;823;-55
2020/12/24 00:56:34;;;;;;;;;;;23.40;46.80;;;;;;1501640;77;805;-58
2020/12/24 00:58:36;;;;;;;;;;;23.40;46.90;;;;;;1511126;77;765;-57
2020/12/24 01:00:37;;;;;;;;;;;23.40;46.90;;;;;;1507707;77;1092;-57
2020/12/24 01:02:39;;;;;;;;;;;23.40;46.90;;;;;;1507338;77;700;-58
2020/12/24 01:04:41;;;;;;;;;;;23.40;46.90;;;;;;1506243;77;778;-56
2020/12/24 01:06:43;;;;;;;;;;;23.50;47.00;;;;;;1503228;77;724;-56
2020/12/24 01:08:45;;;;;;;;;;;23.40;47.00;;;;;;1497514;77;704;-56
2020/12/24 01:10:47;;;;;;;;;;;23.40;47.00;;;;;;1504039;77;1138;-57
2020/12/24 01:12:49;;;;;;;;;;;23.50;47.20;;;;;;1499552;77;1946;-57
2020/12/24 01:14:50;;;;;;;;;;;23.40;47.00;;;;;;1502307;77;838;-55
2020/12/24 01:16:52;;;;;;;;;;;23.40;47.10;;;;;;1503791;77;739;-56
2020/12/24 01:18:54;;;;;;;;;;;23.40;47.10;;;;;;1497596;77;707;-55
2020/12/24 01:20:56;;;;;;;;;;;23.40;47.10;;;;;;1499416;77;1271;-56
2020/12/24 01:22:59;;;;;;;;;;;23.40;47.10;;;;;;1510267;77;751;-56
2020/12/24 01:25:01;;;;;;;;;;;23.50;47.20;;;;;;1513969;77;814;-55
2020/12/24 01:27:03;;;;;;;;;;;23.50;47.30;;;;;;1498570;77;676;-56
2020/12/24 01:29:05;;;;;;;;;;;23.40;47.20;;;;;;1500239;77;639;-56
2020/12/24 01:31:07;;;;;;;;;;;23.40;47.20;;;;;;1501959;77;1161;-57
2020/12/24 01:33:09;;;;;;;;;;;23.40;47.10;;;;;;1502969;77;1960;-56
2020/12/24 01:35:11;;;;;;;;;;;23.40;47.20;;;;;;1503561;77;747;-55
2020/12/24 01:37:13;;;;;;;;;;;23.40;47.30;;;;;;1499781;77;1124;-54
2020/12/24 01:39:14;;;;;;;;;;;23.40;47.50;;;;;;1497199;77;685;-57
2020/12/24 01:41:16;;;;;;;;;;;23.40;47.50;;;;;;1496318;77;1144;-55
2020/12/24 01:43:18;;;;;;;;;;;23.50;47.60;;;;;;1498539;77;773;-56
2020/12/24 01:45:20;;;;;;;;;;;23.50;47.60;;;;;;1495715;77;739;-56
2020/12/24 01:47:22;;;;;;;;;;;23.50;47.60;;;;;;1500461;77;675;-56
2020/12/24 01:49:24;;;;;;;;;;;23.50;47.50;;;;;;1499146;77;752;-55
2020/12/24 01:51:27;;;;;;;;;;;23.50;47.50;;;;;;1502116;77;1148;-55
2020/12/24 01:53:28;;;;;;;;;;;23.50;47.40;;;;;;1502508;77;1952;-55
2020/12/24 01:55:30;;;;;;;;;;;23.50;47.30;;;;;;1498339;77;783;-57
2020/12/24 01:57:32;;;;;;;;;;;23.50;47.30;;;;;;1507931;77;885;-57
2020/12/24 01:59:34;;;;;;;;;;;23.50;47.30;;;;;;1511629;77;810;-57
2020/12/24 02:01:36;;;;;;;;;;;23.50;47.30;;;;;;1501584;77;1144;-55
2020/12/24 02:03:38;;;;;;;;;;;23.50;47.20;;;;;;1503841;77;671;-57
2020/12/24 02:05:40;;;;;;;;;;;23.50;47.30;;;;;;1502100;77;713;-56
2020/12/24 02:07:42;;;;;;;;;;;23.50;47.30;;;;;;1512803;77;676;-56
2020/12/24 02:09:47;;;;;;;;;;;23.50;47.30;;;;;;1506793;77;712;-57
2020/12/24 02:11:49;;;;;;;;;;;23.50;47.30;;;;;;1516275;77;1144;-55
2020/12/24 02:13:51;;;;;;;;;;;23.60;47.10;;;;;;1511477;77;1928;-55
2020/12/24 02:15:53;;;;;;;;;;;23.60;47.10;;;;;;1512595;77;882;-55
2020/12/24 02:17:54;;;;;;;;;;;23.50;47.10;;;;;;1512346;77;759;-56
2020/12/24 02:19:56;;;;;;;;;;;23.50;47.10;;;;;;1504945;77;736;-56
2020/12/24 02:21:58;;;;;;;;;;;23.50;47.10;;;;;;1509268;77;1135;-55
2020/12/24 02:24:00;;;;;;;;;;;23.60;47.10;;;;;;1500015;77;687;-57
2020/12/24 02:26:02;;;;;;;;;;;23.60;47.00;;;;;;1506140;77;775;-55
2020/12/24 02:28:04;;;;;;;;;;;23.60;47.00;;;;;;1507844;77;732;-54
2020/12/24 02:30:06;;;;;;;;;;;23.60;47.00;;;;;;1499888;77;753;-55
2020/12/24 02:32:08;;;;;;;;;;;23.50;47.00;;;;;;1507955;77;1158;-54
2020/12/24 02:34:10;;;;;;;;;;;23.50;47.00;;;;;;1505400;77;1917;-55
2020/12/24 02:36:12;;;;;;;;;;;23.60;46.90;;;;;;1508643;77;850;-54
2020/12/24 02:38:14;;;;;;;;;;;23.60;46.90;;;;;;1509532;77;712;-55
2020/12/24 02:40:16;;;;;;;;;;;23.60;46.90;;;;;;1504463;77;1120;-54
2020/12/24 02:42:18;;;;;;;;;;;23.50;46.90;;;;;;1508531;77;817;-55
2020/12/24 02:44:20;;;;;;;;;;;23.60;46.90;;;;;;1501679;77;688;-55
2020/12/24 02:46:22;;;;;;;;;;;23.60;46.90;;;;;;1509583;77;727;-56
2020/12/24 02:48:24;;;;;;;;;;;23.60;46.90;;;;;;1507320;77;705;-55
2020/12/24 02:50:26;;;;;;;;;;;23.60;46.90;;;;;;1505609;77;1139;-56
2020/12/24 02:52:27;;;;;;;;;;;23.60;47.00;;;;;;1510661;77;700;-56
2020/12/24 02:54:29;;;;;;;;;;;23.60;47.00;;;;;;1517324;77;1942;-55
2020/12/24 02:56:31;;;;;;;;;;;23.60;47.00;;;;;;1517176;77;809;-57
2020/12/24 02:58:33;;;;;;;;;;;23.60;47.00;;;;;;1533732;77;705;-55
2020/12/24 03:00:35;;;;;;;;;;;23.60;47.10;;;;;;1525596;75;1152;-56
2020/12/24 03:02:37;;;;;;;;;;;23.60;47.00;;;;;;1528061;77;774;-56
2020/12/24 03:04:39;;;;;;;;;;;23.70;47.10;;;;;;1520267;77;706;-55
2020/12/24 03:06:41;;;;;;;;;;;23.60;47.00;;;;;;1516460;77;712;-55
2020/12/24 03:08:43;;;;;;;;;;;23.50;47.00;;;;;;1513789;77;694;-56
2020/12/24 03:10:45;;;;;;;;;;;23.50;46.90;;;;;;1517238;77;1150;-54
2020/12/24 03:12:46;;;;;;;;;;;23.50;46.90;;;;;;1518084;77;674;-55
2020/12/24 03:14:48;;;;;;;;;;;23.60;46.90;;;;;;1529435;77;1942;-55
2020/12/24 03:16:50;;;;;;;;;;;23.60;46.80;;;;;;1524961;77;725;-56
2020/12/24 03:18:52;;;;;;;;;;;23.50;46.80;;;;;;1523825;77;773;-55
2020/12/24 03:20:54;;;;;;;;;;;23.60;46.80;;;;;;1509551;77;1134;-55
2020/12/24 03:22:56;;;;;;;;;;;23.60;46.70;;;;;;1518527;76;769;-55
2020/12/24 03:24:58;;;;;;;;;;;23.60;46.70;;;;;;1522089;77;948;-55
2020/12/24 03:27:00;;;;;;;;;;;23.60;46.70;;;;;;1517504;77;1075;-55
2020/12/24 03:29:02;;;;;;;;;;;23.60;46.70;;;;;;1519395;77;681;-55
2020/12/24 03:31:03;;;;;;;;;;;23.50;46.60;;;;;;1521568;77;1200;-55
2020/12/24 03:33:05;;;;;;;;;;;23.60;46.70;;;;;;1526097;77;717;-56
2020/12/24 03:35:07;;;;;;;;;;;23.60;46.70;;;;;;1524240;77;1906;-54
2020/12/24 03:37:09;;;;;;;;;;;23.70;46.80;;;;;;1523785;76;788;-55
2020/12/24 03:39:11;;;;;;;;;;;23.60;46.80;;;;;;1518876;77;775;-55
2020/12/24 03:41:13;;;;;;;;;;;23.60;46.80;;;;;;1516477;77;1145;-55
2020/12/24 03:43:15;;;;;;;;;;;23.60;46.90;;;;;;1520706;77;735;-57
2020/12/24 03:45:17;;;;;;;;;;;23.60;47.00;;;;;;1523139;77;699;-55
2020/12/24 03:47:19;;;;;;;;;;;23.60;47.10;;;;;;1514605;77;689;-57
2020/12/24 03:49:20;;;;;;;;;;;23.60;47.10;;;;;;1527659;77;664;-56
2020/12/24 03:51:22;;;;;;;;;;;23.60;47.40;;;;;;1518315;77;1135;-54
2020/12/24 03:53:25;;;;;;;;;;;23.50;47.50;;;;;;1519534;77;1921;-54
2020/12/24 03:55:28;;;;;;;;;;;23.60;47.70;;;;;;1514664;77;670;-56
2020/12/24 03:57:30;;;;;;;;;;;23.60;47.80;;;;;;1523023;75;760;-54
2020/12/24 03:59:32;;;;;;;;;;;23.60;48.10;;;;;;1518244;77;1009;-55
2020/12/24 04:01:34;;;;;;;;;;;23.50;48.40;;;;;;1514940;77;1129;-56
2020/12/24 04:03:35;;;;;;;;;;;23.50;48.70;;;;;;1507188;77;668;-55
2020/12/24 04:05:37;;;;;;;;;;;23.50;48.90;;;;;;1516340;77;720;-54
2020/12/24 04:07:39;;;;;;;;;;;23.50;49.00;;;;;;1523522;77;704;-55
2020/12/24 04:09:41;;;;;;;;;;;23.40;49.20;;;;;;1512888;77;789;-56
2020/12/24 04:11:43;;;;;;;;;;;23.40;49.20;;;;;;1523624;77;1146;-55
2020/12/24 04:13:45;;;;;;;;;;;23.40;49.20;;;;;;1523403;77;1931;-54
2020/12/24 04:15:47;;;;;;;;;;;23.40;49.20;;;;;;1532407;77;690;-54
2020/12/24 04:17:49;;;;;;;;;;;23.40;49.10;;;;;;1521810;75;619;-54
2020/12/24 04:19:51;;;;;;;;;;;23.40;49.20;;;;;;1513464;77;641;-55
2020/12/24 04:21:53;;;;;;;;;;;23.50;49.20;;;;;;1519585;77;1081;-55
2020/12/24 04:23:55;;;;;;;;;;;23.50;49.40;;;;;;1517900;77;666;-55
2020/12/24 04:25:57;;;;;;;;;;;23.40;49.40;;;;;;1517064;77;713;-55
2020/12/24 04:27:58;;;;;;;;;;;23.40;49.40;;;;;;1515156;77;778;-55
2020/12/24 04:30:00;;;;;;;;;;;23.40;49.40;;;;;;1521760;77;702;-55
2020/12/24 04:32:02;;;;;;;;;;;23.40;49.40;;;;;;1514510;76;1112;-56
2020/12/24 04:34:04;;;;;;;;;;;23.40;49.40;;;;;;1520828;77;1933;-55
2020/12/24 04:36:06;;;;;;;;;;;23.40;49.50;;;;;;1515967;77;691;-55
2020/12/24 04:38:09;;;;;;;;;;;23.40;49.40;;;;;;1521596;77;951;-57
2020/12/24 04:40:11;;;;;;;;;;;23.40;49.40;;;;;;1513103;77;1196;-57
2020/12/24 04:42:14;;;;;;;;;;;23.40;49.40;;;;;;1510690;77;747;-56
2020/12/24 04:44:16;;;;;;;;;;;23.40;49.30;;;;;;1517784;77;844;-57
2020/12/24 04:46:18;;;;;;;;;;;23.40;49.20;;;;;;1527716;77;716;-57
2020/12/24 04:48:20;;;;;;;;;;;23.50;49.20;;;;;;1490117;77;698;-58
2020/12/24 04:50:23;;;;;;;;;;;23.50;49.00;;;;;;1518870;77;1146;-56
2020/12/24 04:52:25;;;;;;;;;;;23.50;48.90;;;;;;1524469;77;759;-56
2020/12/24 04:54:28;;;;;;;;;;;23.50;48.80;;;;;;1519663;77;1937;-55
2020/12/24 04:56:30;;;;;;;;;;;23.60;48.70;;;;;;1517950;77;712;-56
2020/12/24 04:58:32;;;;;;;;;;;23.50;48.70;;;;;;1508488;77;712;-55
2020/12/24 05:00:33;;;;;;;;;;;23.60;48.60;;;;;;1519248;77;1123;-57
2020/12/24 05:02:35;;;;;;;;;;;23.60;48.50;;;;;;1527051;77;801;-55
2020/12/24 05:04:37;;;;;;;;;;;23.60;48.40;;;;;;1524504;77;798;-55
2020/12/24 05:06:39;;;;;;;;;;;23.60;48.30;;;;;;1520370;77;687;-55
2020/12/24 05:08:41;;;;;;;;;;;23.70;48.30;;;;;;1514230;77;685;-55
2020/12/24 05:10:44;;;;;;;;;;;23.70;48.20;;;;;;1518782;77;1144;-55
2020/12/24 05:12:46;;;;;;;;;;;23.70;48.10;;;;;;1532816;77;1622;-56
2020/12/24 05:14:48;;;;;;;;;;;23.70;48.10;;;;;;1510582;77;1962;-56
2020/12/24 05:16:58;;;;;;;;;;;23.70;48.10;;;;;;1513521;77;665;-56
2020/12/24 05:19:01;;;;;;;;;;;23.80;48.10;;;;;;1523041;77;672;-56
2020/12/24 05:21:03;;;;;;;;;;;23.70;48.00;;;;;;1519751;77;1544;-55
2020/12/24 05:23:15;;;;;;;;;;;23.70;48.10;;;;;;1517619;77;807;-56
2020/12/24 05:25:19;;;;;;;;;;;23.70;48.00;;;;;;1516682;77;681;-56
2020/12/24 05:27:22;;;;;;;;;;;23.70;47.90;;;;;;1531195;77;702;-54
2020/12/24 05:29:24;;;;;;;;;;;23.70;48.00;;;;;;1511951;77;697;-54
2020/12/24 05:31:32;;;;;;;;;;;23.70;47.90;;;;;;1525633;77;1192;-54
2020/12/24 05:33:34;;;;;;;;;;;23.80;47.90;;;;;;1514881;77;700;-55
2020/12/24 05:35:36;;;;;;;;;;;23.80;47.80;;;;;;1525785;77;1957;-55
2020/12/24 05:37:38;;;;;;;;;;;23.80;47.70;;;;;;1500534;77;739;-54
2020/12/24 05:39:40;;;;;;;;;;;23.80;47.70;;;;;;1509254;77;738;-54
2020/12/24 05:41:42;;;;;;;;;;;23.80;47.70;;;;;;1530016;77;1157;-54
2020/12/24 05:43:45;;;;;;;;;;;23.90;47.70;;;;;;1515754;77;752;-54
2020/12/24 05:45:47;;;;;;;;;;;23.90;47.70;;;;;;1526446;77;1616;-54
2020/12/24 05:48:08;;;;;;;;;;;23.90;47.80;;;;;;1516691;77;715;-55
2020/12/24 05:50:22;;;;;;;;;;;23.80;47.60;;;;;;1513625;77;1196;-56
2020/12/24 05:52:24;;;;;;;;;;;23.90;47.80;;;;;;1515731;77;708;-54
2020/12/24 05:54:27;;;;;;;;;;;23.90;47.80;;;;;;1511019;77;1948;-54
2020/12/24 05:56:29;;;;;;;;;;;23.80;47.80;;;;;;1509095;77;764;-56
2020/12/24 05:58:31;;;;;;;;;;;23.80;47.80;;;;;;1517500;77;772;-54
2020/12/24 06:00:34;;;;;;;;;;;23.80;47.80;;;;;;1523927;75;1247;-54
2020/12/24 06:02:36;;;;;;;;;;;23.90;47.80;;;;;;1523372;77;1075;-55
2020/12/24 06:04:45;;;;;;;;;;;23.90;47.70;;;;;;1484580;78;703;-56
2020/12/24 06:06:47;;;;;;;;;;;23.90;47.60;;;;;;1509795;77;760;-56
2020/12/24 06:08:49;;;;;;;;;;;23.90;47.60;;;;;;1527789;77;820;-55
2020/12/24 06:11:07;;;;;;;;;;;23.90;47.40;;;;;;1519996;75;1169;-56
2020/12/24 06:13:09;;;;;;;;;;;23.90;47.40;;;;;;1506698;77;726;-54
2020/12/24 06:15:11;;;;;;;;;;;23.90;47.50;;;;;;1497476;77;1938;-55
2020/12/24 06:17:13;;;;;;;;;;;23.90;47.50;;;;;;1530426;77;739;-54
2020/12/24 06:19:14;;;;;;;;;;;23.90;47.50;;;;;;1518228;77;692;-54
2020/12/24 06:21:17;;;;;;;;;;;23.90;47.50;;;;;;1524847;77;1092;-56
2020/12/24 06:23:19;;;;;;;;;;;23.90;47.50;;;;;;1517923;77;766;-54
2020/12/24 06:25:20;;;;;;;;;;;23.90;47.50;;;;;;1506034;77;683;-55
2020/12/24 06:27:24;;;;;;;;;;;23.90;47.50;;;;;;1520810;77;713;-56
2020/12/24 06:29:26;;;;;;;;;;;23.90;47.50;;;;;;1521836;77;814;-56
2020/12/24 06:31:28;;;;;;;;;;;23.90;47.40;;;;;;1533230;77;1207;-56
2020/12/24 06:33:30;;;;;;;;;;;23.90;47.30;;;;;;1518681;77;695;-55
2020/12/24 06:35:33;;;;;;;;;;;23.90;47.30;;;;;;1517595;77;1909;-54
2020/12/24 06:37:41;;;;;;;;;;;23.90;47.30;;;;;;1521693;77;709;-54
2020/12/24 06:39:49;;;;;;;;;;;24.00;47.30;;;;;;1522609;77;765;-54
2020/12/24 06:41:51;;;;;;;;;;;24.00;47.20;;;;;;1514935;77;1127;-54
2020/12/24 06:43:53;;;;;;;;;;;23.90;47.20;;;;;;1517985;77;683;-54
2020/12/24 06:45:56;;;;;;;;;;;23.90;47.20;;;;;;1523377;77;694;-54
2020/12/24 06:48:15;;;;;;;;;;;23.90;47.20;;;;;;1535525;77;693;-55
2020/12/24 06:50:36;;;;;;;;;;;23.90;47.20;;;;;;1507782;77;1123;-56
2020/12/24 06:52:38;;;;;;;;;;;23.90;47.10;;;;;;1512748;77;796;-55
2020/12/24 06:54:40;;;;;;;;;;;23.90;47.10;;;;;;1523606;77;1964;-55
2020/12/24 06:56:41;;;;;;;;;;;23.90;47.10;;;;;;1521162;77;685;-56
2020/12/24 06:58:44;;;;;;;;;;;23.90;47.10;;;;;;1521137;77;672;-55
2020/12/24 07:01:01;;;;;;;;;;;23.90;47.10;;;;;;1514444;77;1141;-54
2020/12/24 07:03:04;;;;;;;;;;;23.90;47.10;;;;;;1515521;77;727;-55
2020/12/24 07:05:06;;;;;;;;;;;23.90;47.10;;;;;;1505463;77;1663;-56
2020/12/24 07:07:08;;;;;;;;;;;23.90;47.10;;;;;;1517861;77;664;-55
2020/12/24 07:09:10;;;;;;;;;;;23.90;47.00;;;;;;1515766;77;712;-55
2020/12/24 07:11:12;;;;;;;;;;;23.90;47.00;;;;;;1509833;77;1162;-54
2020/12/24 07:13:34;;;;;;;;;;;23.90;46.90;;;;;;1520118;77;678;-54
2020/12/24 07:15:41;;;;;;;;;;;23.90;47.00;;;;;;1508031;77;1926;-54
2020/12/24 07:17:43;;;;;;;;;;;24.00;46.90;;;;;;1518784;77;1771;-54
2020/12/24 07:19:45;;;;;;;;;;;23.90;46.90;;;;;;1483933;78;711;-55
2020/12/24 07:21:48;;;;;;;;;;;23.90;46.80;;;;;;1518048;77;1144;-56
2020/12/24 07:23:50;;;;;;;;;;;23.90;46.80;;;;;;1523041;77;727;-54
2020/12/24 07:25:52;;;;;;;;;;;23.90;46.80;;;;;;1535070;77;770;-55
2020/12/24 07:27:55;;;;;;;;;;;24.00;46.70;;;;;;1537053;77;705;-54
2020/12/24 07:29:56;;;;;;;;;;;24.00;46.80;;;;;;1515769;77;782;-56
2020/12/24 07:32:00;;;;;;;;;;;23.90;46.70;;;;;;1522039;77;1151;-55
2020/12/24 07:34:02;;;;;;;;;;;24.00;46.70;;;;;;1520108;77;1695;-54
2020/12/24 07:36:05;;;;;;;;;;;23.90;46.70;;;;;;1498616;77;1946;-54
2020/12/24 07:38:07;;;;;;;;;;;24.00;46.70;;;;;;1506104;77;746;-54
2020/12/24 07:40:10;;;;;;;;;;;23.90;46.80;;;;;;1478733;78;1235;-55
2020/12/24 07:42:12;;;;;;;;;;;24.00;46.80;;;;;;1501463;77;817;-54
2020/12/24 07:44:16;;;;;;;;;;;23.90;46.70;;;;;;1503421;77;762;-54
2020/12/24 07:46:19;;;;;;;;;;;23.90;46.70;;;;;;1512918;77;709;-56
2020/12/24 07:48:22;;;;;;;;;;;23.90;46.60;;;;;;1502631;77;1105;-55
2020/12/24 07:50:30;;;;;;;;;;;24.00;46.80;;;;;;1509646;77;1144;-54
2020/12/24 07:52:32;;;;;;;;;;;23.90;46.80;;;;;;1501207;77;659;-57
2020/12/24 07:54:34;;;;;;;;;;;23.90;46.80;;;;;;1504826;77;803;-56
2020/12/24 07:56:36;;;;;;;;;;;23.90;46.80;;;;;;1508065;77;1921;-57
2020/12/24 07:58:39;;;;;;;;;;;24.00;46.80;;;;;;1515792;76;743;-57
2020/12/24 08:00:42;;;;;;;;;;;23.90;46.70;;;;;;1513331;77;1109;-55
2020/12/24 08:02:44;;;;;;;;;;;23.90;46.70;;;;;;1509315;77;787;-55
2020/12/24 08:04:48;;;;;;;;;;;23.90;46.70;;;;;;1509613;77;680;-56
2020/12/24 08:06:52;;;;;;;;;;;23.90;46.80;;;;;;1504930;77;1782;-57
2020/12/24 08:08:56;;;;;;;;;;;23.90;46.70;;;;;;1507457;77;738;-54
2020/12/24 08:10:58;;;;;;;;;;;23.90;46.70;;;;;;1504257;77;1634;-56
2020/12/24 08:13:04;;;;;;;;;;;23.90;46.80;;;;;;1515700;77;725;-56
2020/12/24 08:15:21;;;;;;;;;;;23.90;46.70;;;;;;1506014;77;1942;-56
2020/12/24 08:17:27;;;;;;;;;;;23.90;46.70;;;;;;1509998;77;657;-56
2020/12/24 08:19:30;;;;;;;;;;;23.90;46.70;;;;;;1506539;77;800;-56
2020/12/24 08:21:33;;;;;;;;;;;23.90;46.70;;;;;;1513774;77;1231;-56
2020/12/24 08:23:44;;;;;;;;;;;23.90;46.70;;;;;;1499721;77;757;-58
2020/12/24 08:25:46;;;;;;;;;;;23.90;46.70;;;;;;1508181;77;1120;-56
2020/12/24 08:27:48;;;;;;;;;;;23.90;46.70;;;;;;1502634;77;941;-56
2020/12/24 08:29:50;;;;;;;;;;;23.90;46.70;;;;;;1504583;77;771;-56
2020/12/24 08:31:52;;;;;;;;;;;23.90;46.60;;;;;;1475451;78;1200;-56
2020/12/24 08:33:54;;;;;;;;;;;23.90;46.60;;;;;;1519838;77;680;-57
2020/12/24 08:35:56;;;;;;;;;;;23.90;46.60;;;;;;1512944;77;1956;-57
2020/12/24 08:38:14;;;;;;;;;;;23.90;46.50;;;;;;1473739;78;1109;-56
2020/12/24 08:40:23;;;;;;;;;;;24.00;46.50;;;;;;1509413;77;1736;-58
2020/12/24 08:42:25;;;;;;;;;;;23.90;46.50;;;;;;1507818;77;799;-56
2020/12/24 08:44:27;;;;;;;;;;;23.90;46.50;;;;;;1502350;77;635;-56
2020/12/24 08:46:28;;;;;;;;;;;23.90;46.50;;;;;;1512602;77;792;-57
2020/12/24 08:48:32;;;;;;;;;;;23.90;46.60;;;;;;1502304;77;674;-55
2020/12/24 08:50:37;;;;;;;;;;;24.00;46.60;;;;;;1504418;77;1167;-54
2020/12/24 08:52:42;;;;;;;;;;;23.90;46.60;;;;;;1507888;77;671;-56
2020/12/24 08:55:01;;;;;;;;;;;24.00;46.60;;;;;;1526929;77;930;-55
2020/12/24 08:57:03;;;;;;;;;;;23.90;46.60;;;;;;1519835;77;1970;-57
2020/12/24 08:59:09;;;;;;;;;;;23.90;46.60;;;;;;1505737;77;669;-56
2020/12/24 09:01:11;;;;;;;;;;;23.90;46.60;;;;;;1510651;77;1138;-56
2020/12/24 09:03:24;;;;;;;;;;;24.00;46.50;;;;;;1524322;77;713;-56
2020/12/24 09:05:26;;;;;;;;;;;23.90;46.60;;;;;;1518018;77;1657;-55
2020/12/24 09:07:28;;;;;;;;;;;24.00;46.80;;;;;;1528894;77;601;-57
2020/12/24 09:09:30;;;;;;;;;;;24.00;46.80;;;;;;1518097;77;805;-54
2020/12/24 09:11:32;;;;;;;;;;;24.10;47.00;;;;;;1522667;75;1156;-56
2020/12/24 09:13:34;;;;;;;;;;;24.20;46.80;;;;;;1520998;77;738;-55
2020/12/24 09:15:36;;;;;;;;;;;24.20;46.50;;;;;;1512899;77;1938;-57
2020/12/24 09:17:40;;;;;;;;;;;24.30;46.50;;;;;;1509339;77;716;-55
2020/12/24 09:19:41;;;;;;;;;;;24.40;46.20;;;;;;1518187;77;1733;-56
2020/12/24 09:21:45;;;;;;;;;;;24.30;46.00;;;;;;1520319;77;1193;-56
2020/12/24 09:23:47;;;;;;;;;;;24.40;45.80;;;;;;1505606;77;1734;-56
2020/12/24 09:25:49;;;;;;;;;;;24.40;45.70;;;;;;1519212;77;696;-56
2020/12/24 09:27:52;;;;;;;;;;;24.50;45.60;;;;;;1525134;77;772;-55
2020/12/24 09:29:54;;;;;;;;;;;24.40;45.30;;;;;;1525809;77;788;-57
2020/12/24 09:31:57;;;;;;;;;;;24.40;45.20;;;;;;1520782;77;1236;-57
2020/12/24 09:33:59;;;;;;;;;;;24.40;45.00;;;;;;1507511;77;660;-56
2020/12/24 09:36:01;;;;;;;;;;;24.50;42.60;;;;;;1518940;77;1953;-55
2020/12/24 09:38:03;;;;;;;;;;;24.40;41.90;;;;;;1526874;77;663;-54
2020/12/24 09:40:05;;;;;;;;;;;24.40;42.30;;;;;;1518195;77;731;-56
2020/12/24 09:42:07;;;;;;;;;;;24.40;42.30;;;;;;1530762;77;1114;-56
2020/12/24 09:44:09;;;;;;;;;;;24.40;42.30;;;;;;1502532;77;1122;-57
2020/12/24 09:46:12;;;;;;;;;;;24.40;42.40;;;;;;1523536;77;784;-57
2020/12/24 09:48:14;;;;;;;;;;;24.40;42.40;;;;;;1516643;77;697;-56
2020/12/24 09:50:16;;;;;;;;;;;24.40;42.40;;;;;;1511790;77;1085;-56
2020/12/24 09:52:18;;;;;;;;;;;24.40;42.40;;;;;;1514981;77;700;-56
2020/12/24 09:54:20;;;;;;;;;;;24.40;42.40;;;;;;1515861;77;807;-55
2020/12/24 09:56:21;;;;;;;;;;;24.40;42.40;;;;;;1512067;77;1946;-56
2020/12/24 09:58:23;;;;;;;;;;;24.40;42.40;;;;;;1523748;77;724;-55
2020/12/24 10:00:25;;;;;;;;;;;24.40;42.40;;;;;;1506296;77;1191;-55
2020/12/24 10:02:27;;;;;;;;;;;24.40;42.40;;;;;;1525640;77;709;-54
2020/12/24 10:04:29;;;;;;;;;;;24.40;42.30;;;;;;1513858;77;793;-55
2020/12/24 10:06:31;;;;;;;;;;;24.40;42.30;;;;;;1521422;77;745;-57
2020/12/24 10:08:33;;;;;;;;;;;24.40;42.40;;;;;;1513972;77;761;-56
2020/12/24 10:10:35;;;;;;;;;;;24.40;42.20;;;;;;1509696;77;1175;-56
2020/12/24 10:12:37;;;;;;;;;;;24.30;42.00;;;;;;1507782;77;727;-56
2020/12/24 10:14:38;;;;;;;;;;;24.20;41.90;;;;;;1510857;77;752;-56
2020/12/24 10:16:40;;;;;;;;;;;24.10;41.80;;;;;;1509783;77;1940;-56
2020/12/24 10:18:42;;;;;;;;;;;24.20;41.80;;;;;;1503777;77;777;-55
2020/12/24 10:20:44;;;;;;;;;;;24.10;41.80;;;;;;1515604;77;1211;-54
2020/12/24 10:22:46;;;;;;;;;;;24.20;41.90;;;;;;1520068;77;682;-55
2020/12/24 10:24:48;;;;;;;;;;;24.10;41.90;;;;;;1519496;77;730;-55
2020/12/24 10:26:51;;;;;;;;;;;24.10;42.00;;;;;;1513415;77;711;-55
2020/12/24 10:28:53;;;;;;;;;;;24.00;41.90;;;;;;1514310;77;2248;-56
2020/12/24 10:30:55;;;;;;;;;;;24.00;42.00;;;;;;1518907;77;1167;-56
2020/12/24 10:32:57;;;;;;;;;;;24.00;42.10;;;;;;1519326;77;764;-55
2020/12/24 10:34:59;;;;;;;;;;;24.10;42.20;;;;;;1515045;77;656;-56
2020/12/24 10:37:01;;;;;;;;;;;24.00;42.20;;;;;;1517043;77;1934;-55
2020/12/24 10:39:06;;;;;;;;;;;24.00;42.10;;;;;;1526064;77;873;-55
2020/12/24 10:41:07;;;;;;;;;;;24.00;42.20;;;;;;1521024;77;1583;-55
2020/12/24 10:43:08;;;;;;;;;;;24.00;42.30;;;;;;1516784;77;740;-55
2020/12/24 10:45:10;;;;;;;;;;;24.00;42.50;;;;;;1513620;77;648;-58
2020/12/24 10:47:12;;;;;;;;;;;23.90;42.40;;;;;;1522883;77;711;-57
2020/12/24 10:49:14;;;;;;;;;;;23.90;42.00;;;;;;1521990;77;688;-58
2020/12/24 10:51:16;;;;;;;;;;;23.90;41.30;;;;;;1514452;75;1145;-57
2020/12/24 10:53:18;;;;;;;;;;;23.80;40.60;;;;;;1528979;77;720;-57
2020/12/24 10:55:20;;;;;;;;;;;23.70;40.10;;;;;;1516266;77;677;-57
2020/12/24 10:57:22;;;;;;;;;;;23.60;40.40;;;;;;1535472;77;1910;-57
2020/12/24 10:59:24;;;;;;;;;;;23.50;40.40;;;;;;1524998;77;692;-57
2020/12/24 11:01:26;;;;;;;;;;;23.60;40.40;;;;;;1523172;77;1155;-58
2020/12/24 11:03:29;;;;;;;;;;;23.50;40.30;;;;;;1519761;77;728;-57
2020/12/24 11:05:31;;;;;;;;;;;23.50;40.20;;;;;;1523601;77;757;-58
2020/12/24 11:07:33;;;;;;;;;;;23.60;39.80;;;;;;1520912;77;719;-58
2020/12/24 11:09:35;;;;;;;;;;;23.60;39.60;;;;;;1518254;77;725;-58
2020/12/24 11:11:37;;;;;;;;;;;23.50;39.30;;;;;;1512231;77;1248;-59
2020/12/24 11:13:40;;;;;;;;;;;23.50;38.70;;;;;;1531468;76;665;-59
2020/12/24 11:15:42;;;;;;;;;;;23.50;38.70;;;;;;1517790;77;1043;-58
2020/12/24 11:17:44;;;;;;;;;;;23.50;38.60;;;;;;1519791;77;1945;-58
2020/12/24 11:19:46;;;;;;;;;;;23.50;38.50;;;;;;1530620;77;1007;-58
2020/12/24 11:21:48;;;;;;;;;;;23.40;38.60;;;;;;1536520;77;1136;-58
2020/12/24 11:23:50;;;;;;;;;;;23.40;39.10;;;;;;1519587;77;749;-57
2020/12/24 11:25:52;;;;;;;;;;;23.40;39.60;;;;;;1517836;77;694;-58
2020/12/24 11:27:54;;;;;;;;;;;23.30;40.00;;;;;;1527834;77;755;-57
2020/12/24 11:29:56;;;;;;;;;;;23.20;40.40;;;;;;1529710;77;740;-57
2020/12/24 11:31:58;;;;;;;;;;;23.20;40.70;;;;;;1524138;75;1146;-57
2020/12/24 11:34:00;;;;;;;;;;;23.20;40.70;;;;;;1509998;77;673;-56
2020/12/24 11:36:03;;;;;;;;;;;23.20;40.80;;;;;;1506541;77;690;-56
2020/12/24 11:38:05;;;;;;;;;;;23.20;40.70;;;;;;1499488;77;808;-55
2020/12/24 11:40:07;;;;;;;;;;;23.30;40.80;;;;;;1501675;77;715;-58
2020/12/24 11:42:12;;;;;;;;;;;23.40;40.70;;;;;;1497243;77;1077;-56
2020/12/24 11:44:13;;;;;;;;;;;23.30;40.60;;;;;;1503447;77;1575;-56
2020/12/24 11:46:15;;;;;;;;;;;23.40;40.50;;;;;;1505956;77;679;-57
2020/12/24 11:48:17;;;;;;;;;;;23.40;40.00;;;;;;1496647;77;721;-57
2020/12/24 11:50:18;;;;;;;;;;;23.40;39.40;;;;;;1507962;77;1352;-56
2020/12/24 11:52:40;;;;;;;;;;;23.40;39.50;;;;;;1500164;77;782;-58
2020/12/24 11:54:42;;;;;;;;;;;23.40;39.50;;;;;;1535356;75;713;-57
2020/12/24 11:56:46;;;;;;;;;;;23.40;39.50;;;;;;1534009;74;1911;-57
2020/12/24 11:58:48;;;;;;;;;;;23.40;39.50;;;;;;1538675;74;732;-57
2020/12/24 12:00:50;;;;;;;;;;;23.40;39.50;;;;;;1541662;74;1226;-56
2020/12/24 12:02:52;;;;;;;;;;;23.40;39.60;;;;;;1537628;74;743;-56
2020/12/24 12:04:54;;;;;;;;;;;23.40;39.60;;;;;;1541918;75;715;-56
2020/12/24 12:06:55;;;;;;;;;;;23.40;39.70;;;;;;1540197;75;778;-57
2020/12/24 12:08:57;;;;;;;;;;;23.40;39.70;;;;;;1533968;74;718;-56
2020/12/24 12:11:05;;;;;;;;;;;23.40;39.90;;;;;;1542012;75;1169;-56
2020/12/24 12:13:07;;;;;;;;;;;23.40;40.00;;;;;;1539438;74;698;-58